createdAt,value
2022-10-14T00:00:56.280Z,11.77
2022-10-14T00:03:40.255Z,11.30
2022-10-14T00:06:20.239Z,14.43
2022-10-14T00:08:56.786Z,13.50
2022-10-14T00:14:55.401Z,13.10
2022-10-14T00:17:49.917Z,15.50
2022-10-14T00:20:33.813Z,18.17
2022-10-14T00:23:32.962Z,13.95
2022-10-14T00:26:08.291Z,13.20
2022-10-14T00:28:47.594Z,14.40
2022-10-14T00:31:26.685Z,10.93
2022-10-14T00:34:04.814Z,9.38
2022-10-14T00:36:58.451Z,10.88
2022-10-14T00:39:56.918Z,12.93
2022-10-14T00:45:42.618Z,12.33
2022-10-14T00:48:28.117Z,14.10
2022-10-14T00:51:15.378Z,14.50
2022-10-14T00:54:01.561Z,9.70
2022-10-14T00:57:01.220Z,14.73
2022-10-14T00:59:51.266Z,10.37
2022-10-14T01:02:36.950Z,10.70
2022-10-14T01:05:32.406Z,8.17
2022-10-14T01:08:21.956Z,10.67
2022-10-14T01:11:07.508Z,13.83
2022-10-14T01:13:59.904Z,14.17
2022-10-14T01:16:46.970Z,10.90
2022-10-14T01:20:06.798Z,18.77
2022-10-14T01:26:11.609Z,10.43
2022-10-14T01:29:05.421Z,11.07
2022-10-14T01:32:13.852Z,13.03
2022-10-14T01:35:21.768Z,11.00
2022-10-14T01:38:24.801Z,13.63
2022-10-14T01:41:18.976Z,8.20
2022-10-14T01:44:12.310Z,8.90
2022-10-14T01:47:09.037Z,14.97
2022-10-14T01:49:49.436Z,8.97
2022-10-14T01:55:28.730Z,10.97
2022-10-14T01:58:12.631Z,12.77
2022-10-14T02:00:55.388Z,8.13
2022-10-14T02:03:44.324Z,9.97
2022-10-14T02:06:27.827Z,8.93
2022-10-14T02:09:29.037Z,13.43
2022-10-14T02:12:33.344Z,13.25
2022-10-14T02:15:33.593Z,6.67
2022-10-14T02:18:36.275Z,14.73
2022-10-14T02:21:39.780Z,12.30
2022-10-14T02:24:26.811Z,14.00
2022-10-14T02:27:12.202Z,12.13
2022-10-14T02:30:08.036Z,12.97
2022-10-14T02:32:57.212Z,14.00
2022-10-14T02:35:32.220Z,9.13
2022-10-14T02:38:12.063Z,7.00
2022-10-14T02:41:07.305Z,12.80
2022-10-14T02:43:51.894Z,9.20
2022-10-14T02:46:29.980Z,6.53
2022-10-14T02:49:20.127Z,9.50
2022-10-14T02:52:02.588Z,10.77
2022-10-14T02:54:43.211Z,10.00
2022-10-14T02:57:30.133Z,11.73
2022-10-14T03:00:22.000Z,10.73
2022-10-14T03:02:56.747Z,6.15
2022-10-14T03:05:47.214Z,10.27
2022-10-14T03:11:37.715Z,9.40
2022-10-14T03:14:29.922Z,7.93
2022-10-14T03:17:14.488Z,6.77
2022-10-14T03:20:02.957Z,10.70
2022-10-14T03:22:58.209Z,9.40
2022-10-14T03:25:38.621Z,10.77
2022-10-14T03:28:24.044Z,6.93
2022-10-14T03:31:00.197Z,9.93
2022-10-14T03:33:36.784Z,7.13
2022-10-14T03:36:45.044Z,6.50
2022-10-14T03:39:26.854Z,8.07
2022-10-14T03:42:05.657Z,12.80
2022-10-14T03:44:48.578Z,7.05
2022-10-14T03:47:42.041Z,10.17
2022-10-14T03:53:12.734Z,7.78
2022-10-14T03:55:58.373Z,8.30
2022-10-14T03:58:52.125Z,7.90
2022-10-14T04:01:55.164Z,7.97
2022-10-14T04:04:34.419Z,9.27
2022-10-14T04:07:22.722Z,7.63
2022-10-14T04:10:12.010Z,8.00
2022-10-14T04:18:35.045Z,6.17
2022-10-14T04:21:20.366Z,9.77
2022-10-14T04:24:34.878Z,12.37
2022-10-14T04:27:10.361Z,19.90
2022-10-14T04:29:47.928Z,9.73
2022-10-14T04:32:27.108Z,7.57
2022-10-14T04:35:20.243Z,7.57
2022-10-14T04:37:58.882Z,7.00
2022-10-14T04:40:48.378Z,7.82
2022-10-14T04:46:19.840Z,14.63
2022-10-14T04:48:56.654Z,12.73
2022-10-14T04:51:57.404Z,9.80
2022-10-14T04:54:42.417Z,13.13
2022-10-14T04:57:38.602Z,18.33
2022-10-14T05:00:26.399Z,9.20
2022-10-14T05:03:14.150Z,8.13
2022-10-14T05:06:03.351Z,8.97
2022-10-14T05:09:02.518Z,12.37
2022-10-14T05:12:00.056Z,9.43
2022-10-14T05:14:52.524Z,9.03
2022-10-14T05:17:47.248Z,10.10
2022-10-14T05:20:26.586Z,14.07
2022-10-14T05:23:43.541Z,9.73
2022-10-14T05:26:47.114Z,14.00
2022-10-14T05:29:29.263Z,10.07
2022-10-14T05:32:23.706Z,8.17
2022-10-14T05:34:59.417Z,15.07
2022-10-14T05:37:40.966Z,7.50
2022-10-14T05:40:26.188Z,7.10
2022-10-14T05:46:05.037Z,13.57
2022-10-14T05:48:54.289Z,17.83
2022-10-14T05:51:49.248Z,13.47
2022-10-14T05:54:39.626Z,7.43
2022-10-14T05:57:16.906Z,18.43
2022-10-14T06:03:02.685Z,15.53
2022-10-14T06:05:47.286Z,9.53
2022-10-14T06:08:23.593Z,8.83
2022-10-14T06:11:16.757Z,10.13
2022-10-14T06:14:14.735Z,12.40
2022-10-14T06:17:32.467Z,14.03
2022-10-14T06:20:34.344Z,11.53
2022-10-14T06:23:12.648Z,9.10
2022-10-14T06:26:15.505Z,9.63
2022-10-14T06:28:56.756Z,7.73
2022-10-14T06:31:37.688Z,9.67
2022-10-14T06:34:29.575Z,8.40
2022-10-14T06:37:09.932Z,10.60
2022-10-14T06:40:08.846Z,11.10
2022-10-14T06:42:49.841Z,10.25
2022-10-14T06:45:38.248Z,8.87
2022-10-14T06:48:57.141Z,11.80
2022-10-14T06:51:46.804Z,11.33
2022-10-14T06:54:25.303Z,13.73
2022-10-14T07:00:23.564Z,19.20
2022-10-14T07:06:11.253Z,32.30
2022-10-14T07:08:51.648Z,39.40
2022-10-14T07:11:37.579Z,42.27
2022-10-14T07:14:14.562Z,37.43
2022-10-14T07:17:02.038Z,21.70
2022-10-14T07:19:40.632Z,29.97
2022-10-14T07:22:26.203Z,23.85
2022-10-14T07:25:18.378Z,14.33
2022-10-14T07:28:00.544Z,33.53
2022-10-14T07:30:38.103Z,17.67
2022-10-14T07:33:27.664Z,18.88
2022-10-14T07:36:21.596Z,16.15
2022-10-14T07:39:04.419Z,14.47
2022-10-14T07:41:53.867Z,12.00
2022-10-14T07:47:15.773Z,15.20
2022-10-14T07:49:59.205Z,16.50
2022-10-14T07:52:41.607Z,15.67
2022-10-14T07:55:27.213Z,16.52
2022-10-14T07:58:09.924Z,10.80
2022-10-14T08:00:52.694Z,11.93
2022-10-14T08:03:46.925Z,13.07
2022-10-14T08:06:36.010Z,14.35
2022-10-14T08:09:17.385Z,12.93
2022-10-14T08:11:57.604Z,14.55
2022-10-14T08:15:00.843Z,14.95
2022-10-14T08:17:46.788Z,14.07
2022-10-14T08:20:36.011Z,12.50
2022-10-14T08:23:10.727Z,12.23
2022-10-14T08:25:49.291Z,14.57
2022-10-14T08:28:28.173Z,11.70
2022-10-14T08:31:29.911Z,10.80
2022-10-14T08:34:10.360Z,65.20
2022-10-14T08:36:44.966Z,101.28
2022-10-14T08:39:40.466Z,86.80
2022-10-14T08:42:44.326Z,99.20
2022-10-14T08:45:37.668Z,40.58
2022-10-14T08:48:23.293Z,29.45
2022-10-14T08:51:02.353Z,30.75
2022-10-14T08:53:59.781Z,16.25
2022-10-14T08:56:44.151Z,10.82
2022-10-14T08:59:29.073Z,16.70
2022-10-14T09:02:19.432Z,7.63
2022-10-14T09:05:15.339Z,18.23
2022-10-14T09:08:04.871Z,15.55
2022-10-14T09:10:47.049Z,14.10
2022-10-14T09:13:42.678Z,9.60
2022-10-14T09:16:25.585Z,12.65
2022-10-14T09:19:03.205Z,13.57
2022-10-14T09:21:58.810Z,15.30
2022-10-14T09:24:56.977Z,26.40
2022-10-14T09:27:33.505Z,14.50
2022-10-14T09:30:33.972Z,12.35
2022-10-14T09:33:21.722Z,13.75
2022-10-14T09:36:07.072Z,16.27
2022-10-14T09:38:47.754Z,14.38
2022-10-14T09:41:28.124Z,12.90
2022-10-14T09:44:28.112Z,19.33
2022-10-14T09:47:12.989Z,38.00
2022-10-14T09:50:03.482Z,23.40
2022-10-14T09:55:49.761Z,20.38
2022-10-14T09:58:52.099Z,16.75
2022-10-14T10:01:36.528Z,15.85
2022-10-14T10:04:41.055Z,18.45
2022-10-14T10:07:34.199Z,15.18
2022-10-14T10:10:30.956Z,16.02
2022-10-14T10:13:41.482Z,16.30
2022-10-14T10:16:36.052Z,23.25
2022-10-14T10:19:48.438Z,30.45
2022-10-14T10:22:42.824Z,27.05
2022-10-14T10:25:28.788Z,30.15
2022-10-14T10:28:48.678Z,26.33
2022-10-14T10:31:50.959Z,23.20
2022-10-14T10:35:05.721Z,17.02
2022-10-14T10:38:21.122Z,17.95
2022-10-14T10:41:13.541Z,19.08
2022-10-14T10:44:28.657Z,35.05
2022-10-14T10:47:29.551Z,22.00
2022-10-14T10:50:37.515Z,17.33
2022-10-14T10:53:45.097Z,20.88
2022-10-14T10:56:33.231Z,20.48
2022-10-14T10:59:36.264Z,20.45
2022-10-14T11:02:53.081Z,19.65
2022-10-14T11:05:49.890Z,14.75
2022-10-14T11:09:16.839Z,13.10
2022-10-14T11:12:25.728Z,13.40
2022-10-14T11:18:12.706Z,18.60
2022-10-14T11:21:13.801Z,22.00
2022-10-14T11:27:34.295Z,19.17
2022-10-14T11:30:23.957Z,18.63
2022-10-14T11:33:33.884Z,12.27
2022-10-14T11:36:32.506Z,16.48
2022-10-14T11:39:34.769Z,13.35
2022-10-14T11:42:59.761Z,19.35
2022-10-14T11:46:04.061Z,15.65
2022-10-14T11:48:47.787Z,11.45
2022-10-14T11:51:33.286Z,10.43
2022-10-14T11:54:29.629Z,14.73
2022-10-14T11:57:18.171Z,12.30
2022-10-14T12:00:12.229Z,15.98
2022-10-14T12:03:06.240Z,20.92
2022-10-14T12:05:52.219Z,16.02
2022-10-14T12:08:35.550Z,18.55
2022-10-14T12:11:18.506Z,17.98
2022-10-14T12:14:05.169Z,15.40
2022-10-14T12:16:41.214Z,17.15
2022-10-14T12:19:28.147Z,25.17
2022-10-14T12:22:23.532Z,37.58
2022-10-14T12:25:11.041Z,33.90
2022-10-14T12:28:02.872Z,21.83
2022-10-14T12:31:00.016Z,21.73
2022-10-14T12:34:31.343Z,16.95
2022-10-14T12:37:28.764Z,15.10
2022-10-14T12:40:32.806Z,16.40
2022-10-14T12:43:28.001Z,18.63
2022-10-14T12:46:34.896Z,27.00
2022-10-14T12:49:25.854Z,24.50
2022-10-14T12:52:14.573Z,30.48
2022-10-14T12:55:00.416Z,18.40
2022-10-14T13:00:51.163Z,13.95
2022-10-14T13:03:35.725Z,16.52
2022-10-14T13:06:47.362Z,11.70
2022-10-14T13:09:44.668Z,12.52
2022-10-14T13:12:54.763Z,17.55
2022-10-14T13:19:26.531Z,11.82
2022-10-14T13:22:08.447Z,9.90
2022-10-14T13:25:02.865Z,11.57
2022-10-14T13:27:49.313Z,33.13
2022-10-14T13:30:44.652Z,13.13
2022-10-14T13:33:46.472Z,15.15
2022-10-14T13:36:40.606Z,15.45
2022-10-14T13:39:38.208Z,8.43
2022-10-14T13:42:22.609Z,11.50
2022-10-14T13:45:02.904Z,11.60
2022-10-14T13:47:55.667Z,8.90
2022-10-14T13:50:49.206Z,8.82
2022-10-14T13:53:45.020Z,11.68
2022-10-14T13:56:37.690Z,11.20
2022-10-14T13:59:43.945Z,11.77
2022-10-14T14:02:29.486Z,12.35
2022-10-14T14:05:33.020Z,14.48
2022-10-14T14:08:43.804Z,11.10
2022-10-14T14:11:35.430Z,10.63
2022-10-14T14:14:22.325Z,13.90
2022-10-14T14:19:50.472Z,13.63
2022-10-14T14:23:09.576Z,13.38
2022-10-14T14:26:14.335Z,12.23
2022-10-14T14:28:45.418Z,11.50
2022-10-14T14:31:33.644Z,10.43
2022-10-14T14:34:28.514Z,10.65
2022-10-14T14:37:56.430Z,8.55
2022-10-14T14:40:30.912Z,13.13
2022-10-14T14:43:14.900Z,9.98
2022-10-14T14:49:13.869Z,10.63
2022-10-14T14:51:54.552Z,8.70
2022-10-14T14:54:32.315Z,10.25
2022-10-14T14:57:19.165Z,8.02
2022-10-14T15:00:16.536Z,8.65
2022-10-14T15:03:27.953Z,9.57
2022-10-14T15:09:20.783Z,11.25
2022-10-14T15:12:10.236Z,13.20
2022-10-14T15:15:08.499Z,10.80
2022-10-14T15:17:48.486Z,10.50
2022-10-14T15:20:44.273Z,10.68
2022-10-14T15:24:11.225Z,8.02
2022-10-14T15:26:48.367Z,8.25
2022-10-14T15:29:34.953Z,7.97
2022-10-14T15:32:25.325Z,8.30
2022-10-14T15:35:11.965Z,10.65
2022-10-14T15:37:53.959Z,12.52
2022-10-14T15:40:48.696Z,7.43
2022-10-14T15:43:32.246Z,11.13
2022-10-14T15:46:31.843Z,10.25
2022-10-14T15:52:17.814Z,6.00
2022-10-14T15:55:14.382Z,9.48
2022-10-14T15:58:01.637Z,7.75
2022-10-14T16:00:38.871Z,9.23
2022-10-14T16:03:35.998Z,5.65
2022-10-14T16:06:45.273Z,9.32
2022-10-14T16:12:26.870Z,7.07
2022-10-14T16:15:02.853Z,6.70
2022-10-14T16:17:52.841Z,9.60
2022-10-14T16:20:43.214Z,14.00
2022-10-14T16:23:33.403Z,15.40
2022-10-14T16:26:09.219Z,21.02
2022-10-14T16:28:54.997Z,30.30
2022-10-14T16:31:42.348Z,23.10
2022-10-14T16:34:29.305Z,23.70
2022-10-14T16:37:15.021Z,40.60
2022-10-14T16:39:55.010Z,10.80
2022-10-14T16:42:52.337Z,14.27
2022-10-14T16:45:41.853Z,13.40
2022-10-14T16:48:23.090Z,9.52
2022-10-14T16:51:16.080Z,9.10
2022-10-14T16:54:01.606Z,10.77
2022-10-14T16:57:02.620Z,9.38
2022-10-14T16:59:47.443Z,11.20
2022-10-14T17:02:45.336Z,13.60
2022-10-14T17:05:50.347Z,8.25
2022-10-14T17:08:36.056Z,12.73
2022-10-14T17:11:24.803Z,8.75
2022-10-14T17:14:13.625Z,11.43
2022-10-14T17:17:11.151Z,8.50
2022-10-14T17:20:07.082Z,13.85
2022-10-14T17:22:50.808Z,11.25
2022-10-14T17:25:31.107Z,9.77
2022-10-14T17:28:09.169Z,11.07
2022-10-14T17:30:56.075Z,8.90
2022-10-14T17:33:40.819Z,7.32
2022-10-14T17:36:20.592Z,8.30
2022-10-14T17:42:24.916Z,12.68
2022-10-14T17:45:03.343Z,16.10
2022-10-14T17:50:51.823Z,8.55
2022-10-14T17:53:34.314Z,8.75
2022-10-14T17:56:13.201Z,10.50
2022-10-14T17:59:11.823Z,9.35
2022-10-14T18:02:02.787Z,6.95
2022-10-14T18:04:53.244Z,8.55
2022-10-14T18:07:41.684Z,7.97
2022-10-14T18:10:33.077Z,10.43
2022-10-14T18:13:19.486Z,6.75
2022-10-14T18:16:16.714Z,7.25
2022-10-14T18:18:58.336Z,8.15
2022-10-14T18:21:48.542Z,9.93
2022-10-14T18:24:34.904Z,6.65
2022-10-14T18:27:13.514Z,10.70
2022-10-14T18:30:06.453Z,7.95
2022-10-14T18:33:03.460Z,7.25
2022-10-14T18:35:44.054Z,8.02
2022-10-14T18:38:26.942Z,12.15
2022-10-14T18:41:17.477Z,12.27
2022-10-14T18:44:08.566Z,9.52
2022-10-14T18:46:47.130Z,7.55
2022-10-14T18:49:32.396Z,11.10
2022-10-14T18:52:10.830Z,12.00
2022-10-14T18:54:55.727Z,7.85
2022-10-14T18:57:34.902Z,8.95
2022-10-14T19:00:14.328Z,9.30
2022-10-14T19:03:07.095Z,11.02
2022-10-14T19:05:55.107Z,7.50
2022-10-14T19:08:38.084Z,8.30
2022-10-14T19:11:26.461Z,7.90
2022-10-14T19:14:09.876Z,8.80
2022-10-14T19:17:26.393Z,8.70
2022-10-14T19:20:23.117Z,7.22
2022-10-14T19:23:48.936Z,9.93
2022-10-14T19:26:34.492Z,11.60
2022-10-14T19:29:16.756Z,13.30
2022-10-14T19:31:58.521Z,10.05
2022-10-14T19:34:49.852Z,10.05
2022-10-14T19:37:31.222Z,6.75
2022-10-14T19:40:10.207Z,8.48
2022-10-14T19:42:48.211Z,12.25
2022-10-14T19:45:50.270Z,11.00
2022-10-14T19:48:36.481Z,13.13
2022-10-14T19:51:48.776Z,9.15
2022-10-14T19:54:27.873Z,6.35
2022-10-14T19:57:07.766Z,9.05
2022-10-14T20:00:15.529Z,8.95
2022-10-14T20:02:56.120Z,9.73
2022-10-14T20:05:55.945Z,14.98
2022-10-14T20:08:33.172Z,10.02
2022-10-14T20:11:45.844Z,6.55
2022-10-14T20:14:36.345Z,10.57
2022-10-14T20:20:05.537Z,6.20
2022-10-14T20:22:43.151Z,6.22
2022-10-14T20:25:37.013Z,7.88
2022-10-14T20:28:16.153Z,7.03
2022-10-14T20:31:03.469Z,10.25
2022-10-14T20:33:49.754Z,6.55
2022-10-14T20:36:35.769Z,11.50
2022-10-14T20:39:14.740Z,9.63
2022-10-14T20:41:50.509Z,10.93
2022-10-14T20:47:40.714Z,9.48
2022-10-14T20:50:26.129Z,8.55
2022-10-14T20:53:15.314Z,7.57
2022-10-14T20:58:38.567Z,10.85
2022-10-14T21:01:33.230Z,7.47
2022-10-14T21:04:27.687Z,12.13
2022-10-14T21:07:10.196Z,9.15
2022-10-14T21:09:54.009Z,12.90
2022-10-14T21:12:31.069Z,8.43
2022-10-14T21:15:16.159Z,8.18
2022-10-14T21:18:03.858Z,12.77
2022-10-14T21:20:48.405Z,8.43
2022-10-14T21:26:25.652Z,7.18
2022-10-14T21:29:11.010Z,6.70
2022-10-14T21:32:01.620Z,6.22
2022-10-14T21:34:43.814Z,8.40
2022-10-14T21:37:36.992Z,6.88
2022-10-14T21:40:24.183Z,10.38
2022-10-14T21:43:09.280Z,9.85
2022-10-14T21:45:59.362Z,10.07
2022-10-14T21:48:40.795Z,7.15
2022-10-14T21:51:57.909Z,6.85
2022-10-14T21:57:34.591Z,9.27
2022-10-14T22:00:20.321Z,6.13
2022-10-14T22:03:00.363Z,11.60
2022-10-14T22:05:54.421Z,9.85
2022-10-14T22:08:40.215Z,10.18
2022-10-14T22:11:33.094Z,11.57
2022-10-14T22:14:21.055Z,7.78
2022-10-14T22:17:15.264Z,10.50
2022-10-14T22:20:05.128Z,7.65
2022-10-14T22:22:48.614Z,7.68
2022-10-14T22:25:28.772Z,9.60
2022-10-14T22:28:35.757Z,7.80
2022-10-14T22:31:25.241Z,10.52
2022-10-14T22:34:12.683Z,10.18
2022-10-14T22:37:10.668Z,10.35
2022-10-14T22:42:40.515Z,13.30
2022-10-14T22:45:17.982Z,9.65
2022-10-14T22:53:34.691Z,10.48
2022-10-14T22:56:10.058Z,11.30
2022-10-14T22:58:53.119Z,9.98
2022-10-14T23:04:41.574Z,8.00
2022-10-14T23:10:51.829Z,9.68
2022-10-14T23:13:51.144Z,9.45
2022-10-14T23:16:37.085Z,12.23
2022-10-14T23:19:18.772Z,11.75
2022-10-14T23:22:10.342Z,7.65
2022-10-14T23:25:05.323Z,12.35
2022-10-14T23:28:16.552Z,7.13
2022-10-14T23:31:01.437Z,8.27
2022-10-14T23:33:49.261Z,9.48
2022-10-14T23:36:27.358Z,12.75
2022-10-14T23:39:08.568Z,11.05
2022-10-14T23:41:52.877Z,15.95
2022-10-14T23:44:32.195Z,10.02
2022-10-14T23:50:10.499Z,13.55
2022-10-14T23:52:50.355Z,9.18
2022-10-14T23:55:34.918Z,6.97
2022-10-14T23:58:29.715Z,14.55
